Time;durP1;ratioP1;P1;durP2;ratioP2;P2;SDS_P1;SDS_P2;PMS_P1;PMS_P2;Temp;Humidity;BMP_temperature;BMP_pressure;BME280_temperature;BME280_humidity;BME280_pressure;Samples;Min_cycle;Max_cycle;Signal;HPM_P1;HPM_P2
2022/09/27 00:02:22;;;;;;;21.48;16.10;;;;;;;11.80;100.00;99201.03;5574541;31;32449;-69
2022/09/27 00:05:26;;;;;;;20.70;14.98;;;;;;;11.74;100.00;99199.19;5588558;31;33984;-69
2022/09/27 00:08:34;;;;;;;20.45;15.25;;;;;;;11.73;100.00;99213.47;5575140;31;32444;-69
2022/09/27 00:11:41;;;;;;;23.08;14.95;;;;;;;11.60;100.00;99202.81;5564948;31;32376;-69
2022/09/27 00:14:46;;;;;;;21.45;14.87;;;;;;;11.55;100.00;99202.59;5590824;31;34122;-68
2022/09/27 00:17:54;;;;;;;25.00;15.27;;;;;;;11.52;100.00;99195.84;5590899;31;34045;-68
2022/09/27 00:21:11;;;;;;;19.42;15.05;;;;;;;11.55;100.00;99199.94;5577391;31;33883;-68
2022/09/27 00:24:22;;;;;;;21.45;15.38;;;;;;;11.60;100.00;99193.00;5590892;31;34019;-68
2022/09/27 00:27:29;;;;;;;19.80;15.23;;;;;;;11.61;100.00;99192.00;5590871;31;34597;-68
2022/09/27 00:30:43;;;;;;;22.48;16.25;;;;;;;11.67;100.00;99191.16;5590860;31;34630;-68
2022/09/27 00:33:51;;;;;;;;;;;;;;;11.71;100.00;99184.41;5577715;31;33938;-68
2022/09/27 00:37:00;;;;;;;24.00;17.62;;;;;;;11.77;100.00;99177.50;5590708;31;34894;-68
2022/09/27 00:40:09;;;;;;;22.48;16.80;;;;;;;11.80;100.00;99165.66;5590807;31;34445;-68
2022/09/27 00:43:26;;;;;;;20.52;16.17;;;;;;;11.81;100.00;99165.47;5590724;31;33912;-68
2022/09/27 00:46:40;;;;;;;23.55;16.85;;;;;;;11.86;100.00;99162.19;5590491;31;34074;-68
2022/09/27 00:49:56;;;;;;;20.23;15.75;;;;;;;11.81;100.00;99167.31;5590502;31;33923;-68
2022/09/27 00:53:03;;;;;;;21.20;15.55;;;;;;;11.84;100.00;99164.22;5590601;31;34110;-68
2022/09/27 00:56:19;;;;;;;19.10;15.70;;;;;;;11.84;100.00;99158.91;5590933;31;34578;-68
2022/09/27 00:59:33;;;;;;;22.52;15.68;;;;;;;11.83;100.00;99157.28;5590740;31;33959;-68
2022/09/27 01:02:49;;;;;;;22.05;15.55;;;;;;;11.84;100.00;99158.91;5590586;31;34690;-68
2022/09/27 01:05:57;;;;;;;21.87;15.32;;;;;;;11.86;100.00;99152.34;5590542;31;34599;-68
2022/09/27 01:09:08;;;;;;;21.65;16.20;;;;;;;11.92;100.00;99145.41;5577600;31;34697;-68
2022/09/27 01:12:43;;;;;;;22.80;15.43;;;;;;;11.96;100.00;99147.44;5590480;31;34449;-69
2022/09/27 01:16:18;;;;;;;20.00;15.43;;;;;;;11.93;100.00;99142.56;5590472;31;34109;-69
2022/09/27 01:19:44;;;;;;;20.23;15.63;;;;;;;12.03;100.00;99150.09;5589513;31;34291;-69
2022/09/27 01:23:16;;;;;;;20.37;15.27;;;;;;;11.99;100.00;99148.88;5590447;31;33961;-69
2022/09/27 01:26:44;;;;;;;27.08;14.82;;;;;;;11.97;100.00;99150.91;5590399;31;34345;-68
2022/09/27 01:30:20;;;;;;;20.63;15.47;;;;;;;11.93;100.00;99144.38;5577333;31;33885;-68
2022/09/27 01:33:55;;;;;;;25.05;15.07;;;;;;;11.87;100.00;99138.06;5590606;31;34711;-69
2022/09/27 01:37:26;;;;;;;24.00;15.32;;;;;;;11.80;100.00;99126.63;5590030;31;35408;-68
2022/09/27 01:41:16;;;;;;;19.50;14.00;;;;;;;11.71;100.00;99123.31;5575939;31;32438;-69
2022/09/27 01:44:37;;;;;;;21.27;14.77;;;;;;;11.65;100.00;99120.69;5510983;32;34273;-68
2022/09/27 01:47:52;;;;;;;20.30;14.85;;;;;;;11.64;100.00;99119.03;5510768;32;33906;-69
2022/09/27 01:51:36;;;;;;;21.92;15.30;;;;;;;11.58;100.00;99114.53;5510543;32;33835;-69
2022/09/27 01:54:53;;;;;;;21.27;15.45;;;;;;;11.56;100.00;99105.97;5510392;32;34774;-68
2022/09/27 01:58:05;;;;;;;23.73;15.50;;;;;;;11.59;100.00;99098.41;5510459;32;33792;-69
2022/09/27 02:01:15;;;;;;;26.33;15.75;;;;;;;11.60;100.00;99091.25;5498444;32;33927;-69
2022/09/27 02:04:29;;;;;;;21.95;16.50;;;;;;;11.59;100.00;99094.94;5510487;32;33903;-68
2022/09/27 02:07:42;;;;;;;23.62;15.45;;;;;;;11.48;100.00;99084.91;5497352;32;33200;-68
2022/09/27 02:10:56;;;;;;;21.60;15.65;;;;;;;11.40;100.00;99083.28;5510531;32;34739;-69
2022/09/27 02:14:14;;;;;;;23.27;15.23;;;;;;;11.27;100.00;99078.81;5498417;32;34566;-68
2022/09/27 02:17:47;;;;;;;20.37;15.43;;;;;;;11.19;100.00;99083.47;5531233;31;34635;-68
2022/09/27 02:21:00;;;;;;;20.60;15.52;;;;;;;11.06;100.00;99084.28;5589970;31;33756;-69
2022/09/27 02:24:13;;;;;;;21.12;16.17;;;;;;;10.95;100.00;99078.75;5575983;31;33311;-69
2022/09/27 02:27:29;;;;;;;22.83;16.95;;;;;;;10.92;100.00;99087.13;5589715;31;34674;-68
2022/09/27 02:30:42;;;;;;;26.12;16.60;;;;;;;10.81;100.00;99088.53;5589399;31;33953;-68
2022/09/27 02:33:58;;;;;;;24.30;16.67;;;;;;;10.76;100.00;99091.78;5589824;31;33845;-68
2022/09/27 02:37:07;;;;;;;21.23;16.02;;;;;;;10.72;100.00;99089.72;5589672;31;33966;-68
2022/09/27 02:40:15;;;;;;;22.90;16.25;;;;;;;10.70;100.00;99086.44;5589689;31;34016;-68
2022/09/27 02:43:29;;;;;;;23.35;17.23;;;;;;;10.67;100.00;99085.03;5589641;31;34673;-68
2022/09/27 02:47:13;;;;;;;25.88;17.17;;;;;;;10.64;100.00;99082.78;5589859;31;34408;-68
2022/09/27 02:50:38;;;;;;;24.15;16.83;;;;;;;10.64;100.00;99076.66;5589415;31;34620;-69
2022/09/27 02:54:07;;;;;;;28.42;16.98;;;;;;;10.65;100.00;99080.97;5589545;31;34685;-68
2022/09/27 02:57:55;;;;;;;25.02;16.87;;;;;;;10.72;100.00;99076.47;5589666;31;34001;-68
2022/09/27 03:01:14;;;;;;;24.00;18.20;;;;;;;10.82;100.00;99067.09;5575620;31;32822;-68
2022/09/27 03:04:43;;;;;;;;;;;;;;;10.99;100.00;99069.41;5589720;31;33939;-68
2022/09/27 03:07:50;;;;;;;25.00;18.33;;;;;;;11.12;100.00;99064.09;5589956;31;34228;-68
2022/09/27 03:10:56;;;;;;;26.33;18.12;;;;;;;11.21;100.00;99062.87;5589673;31;34700;-68
2022/09/27 03:14:01;;;;;;;26.60;17.70;;;;;;;11.28;100.00;99059.19;5589358;31;34020;-68
2022/09/27 03:17:14;;;;;;;22.08;16.95;;;;;;;11.36;100.00;99054.69;5589369;31;34626;-68
2022/09/27 03:20:26;;;;;;;28.17;19.05;;;;;;;11.43;100.00;99058.16;5589273;31;34341;-68
2022/09/27 03:23:33;;;;;;;25.35;18.92;;;;;;;11.49;100.00;99055.50;5589522;31;34600;-68
2022/09/27 03:26:42;;;;;;;55.35;25.92;;;;;;;11.58;100.00;99053.44;5575371;31;32414;-68
2022/09/27 03:29:50;;;;;;;39.88;24.35;;;;;;;11.62;100.00;99054.66;5589017;31;33884;-68
2022/09/27 03:32:58;;;;;;;33.72;24.27;;;;;;;11.75;100.00;99054.69;5588972;31;34188;-68
2022/09/27 03:36:08;;;;;;;39.30;24.50;;;;;;;11.62;100.00;99054.66;5589019;31;34404;-69
2022/09/27 03:39:16;;;;;;;57.05;27.77;;;;;;;11.65;100.00;99049.78;5589144;31;34850;-69
2022/09/27 03:42:24;;;;;;;59.42;27.15;;;;;;;11.66;100.00;99051.41;5588033;31;33887;-69
2022/09/27 03:45:33;;;;;;;65.15;29.90;;;;;;;11.70;100.00;99051.81;5576067;31;34050;-69
2022/09/27 03:48:41;;;;;;;59.50;30.30;;;;;;;11.74;100.00;99045.09;5588780;31;33901;-69
2022/09/27 03:51:49;;;;;;;72.55;31.10;;;;;;;11.73;100.00;99044.25;5588757;31;33827;-69
2022/09/27 03:54:55;;;;;;;72.87;32.72;;;;;;;11.81;100.00;99037.94;5588533;31;34042;-69
2022/09/27 03:58:07;;;;;;;;;;;;;;;11.77;100.00;99040.16;5589024;31;33925;-69
2022/09/27 04:01:13;;;;;;;70.62;31.20;;;;;;;11.84;100.00;99037.50;5589063;31;34936;-69
2022/09/27 04:04:23;;;;;;;61.35;30.55;;;;;;;11.81;100.00;99043.25;5588296;31;34237;-69
2022/09/27 04:07:30;;;;;;;62.08;33.78;;;;;;;11.92;100.00;99041.75;5588470;31;34549;-69
2022/09/27 04:10:38;;;;;;;91.07;36.35;;;;;;;11.88;100.00;99033.41;5588354;31;34656;-69
2022/09/27 04:13:46;;;;;;;68.12;33.35;;;;;;;11.83;100.00;99035.88;5588249;31;34027;-69
2022/09/27 04:16:55;;;;;;;82.95;33.83;;;;;;;11.90;100.00;99038.50;5588379;31;34032;-69
2022/09/27 04:20:03;;;;;;;89.20;36.08;;;;;;;11.85;100.00;99041.78;5588217;31;34058;-68
2022/09/27 04:23:12;;;;;;;77.20;36.85;;;;;;;11.83;100.00;99040.34;5588130;31;33965;-69
2022/09/27 04:26:21;;;;;;;74.93;38.50;;;;;;;11.73;100.00;99043.44;5588087;31;34035;-68
2022/09/27 04:29:30;;;;;;;70.72;37.88;;;;;;;11.74;100.00;99032.63;5587975;31;34054;-69
2022/09/27 04:32:43;;;;;;;66.65;38.13;;;;;;;11.80;100.00;99030.97;5587915;31;33904;-69
2022/09/27 04:39:17;;;;;;;73.10;39.53;;;;;;;11.84;100.00;99016.25;5587467;31;34150;-70
2022/09/27 04:42:25;;;;;;;77.35;38.40;;;;;;;11.83;100.00;99022.56;5573388;31;32370;-69
2022/09/27 04:45:33;;;;;;;69.60;36.55;;;;;;;11.83;100.00;99019.91;5573690;31;32670;-69
2022/09/27 04:48:41;;;;;;;72.75;37.88;;;;;;;11.84;100.00;99026.06;5587719;31;34639;-69
2022/09/27 04:51:47;;;;;;;67.57;35.97;;;;;;;11.85;100.00;99023.19;5587448;31;34279;-68
2022/09/27 04:54:54;;;;;;;79.80;37.20;;;;;;;11.88;100.00;99012.13;5574905;31;33082;-72
2022/09/27 04:58:01;;;;;;;75.75;37.28;;;;;;;11.85;100.00;99022.38;5576183;31;33012;-68
2022/09/27 05:01:10;;;;;;;91.45;38.45;;;;;;;11.89;100.00;99023.59;5590326;31;34328;-68
2022/09/27 05:04:16;;;;;;;121.20;39.40;;;;;;;11.96;100.00;99025.19;5590403;31;33993;-69
2022/09/27 05:07:23;;;;;;;94.47;40.53;;;;;;;11.94;100.00;99007.84;5590045;31;34789;-70
2022/09/27 05:10:26;;;;;;;99.72;39.33;;;;;;;11.92;100.00;99008.03;5590252;31;34278;-70
2022/09/27 05:13:32;;;;;;;71.60;39.20;;;;;;;12.02;100.00;99002.28;5590081;31;34262;-69
2022/09/27 05:16:37;;;;;;;83.57;40.42;;;;;;;12.09;100.00;98989.78;5590145;31;33939;-70
2022/09/27 05:19:46;;;;;;;98.72;39.83;;;;;;;12.09;100.00;98995.91;5590202;31;33973;-69
2022/09/27 05:22:51;;;;;;;76.25;41.37;;;;;;;12.22;100.00;99004.84;5590084;31;34043;-70
2022/09/27 05:25:56;;;;;;;74.12;41.40;;;;;;;12.20;100.00;99005.03;5589926;31;33993;-69
2022/09/27 05:29:01;;;;;;;80.47;41.60;;;;;;;12.22;100.00;99000.34;5589766;31;34050;-69
2022/09/27 05:32:06;;;;;;;71.43;41.92;;;;;;;12.33;100.00;99001.53;5589657;31;34043;-70
2022/09/27 05:35:10;;;;;;;71.97;40.00;;;;;;;12.43;100.00;99000.06;5589685;31;34590;-69
2022/09/27 05:38:14;;;;;;;76.68;42.22;;;;;;;12.51;100.00;98999.78;5589670;31;34760;-70
2022/09/27 05:41:20;;;;;;;74.60;41.25;;;;;;;12.61;100.00;98991.34;5589676;31;34692;-70
2022/09/27 05:44:25;;;;;;;78.65;43.60;;;;;;;12.26;100.00;98982.94;5589960;31;33876;-70
2022/09/27 05:47:31;;;;;;;70.85;41.45;;;;;;;12.24;100.00;98969.06;5589388;31;34588;-70
2022/09/27 05:50:37;;;;;;;64.62;40.08;;;;;;;12.41;100.00;98974.69;5575597;31;32954;-70
2022/09/27 05:53:41;;;;;;;66.65;38.60;;;;;;;12.55;100.00;98974.38;5575841;31;33941;-70
2022/09/27 05:56:46;;;;;;;61.37;38.67;;;;;;;12.49;100.00;98971.78;5575956;31;34132;-70
2022/09/27 05:59:51;;;;;;;64.30;38.65;;;;;;;12.40;100.00;98963.22;5590028;31;34046;-70
2022/09/27 06:02:59;;;;;;;62.95;36.20;;;;;;;12.43;100.00;98969.97;5589652;31;34110;-69
2022/09/27 06:06:06;;;;;;;54.33;35.17;;;;;;;12.52;100.00;98974.00;5589042;31;33991;-71
2022/09/27 06:09:13;;;;;;;57.50;33.30;;;;;;;12.60;100.00;98985.19;5575695;31;32863;-70
2022/09/27 06:12:19;;;;;;;51.03;32.58;;;;;;;12.58;100.00;98997.09;5589493;31;33981;-70
2022/09/27 06:15:24;;;;;;;53.50;30.15;;;;;;;12.61;100.00;98991.34;5575412;31;32638;-70
2022/09/27 06:18:29;;;;;;;49.30;30.50;;;;;;;12.65;100.00;98995.19;5589299;31;34615;-70
2022/09/27 06:21:32;;;;;;;48.58;31.10;;;;;;;12.77;100.00;98993.50;5575345;31;33890;-70
2022/09/27 06:24:35;;;;;;;54.05;31.33;;;;;;;12.88;100.00;98989.28;5575014;31;32785;-70
2022/09/27 06:27:40;;;;;;;46.47;30.10;;;;;;;12.89;100.00;98989.09;5589588;31;34263;-70
2022/09/27 06:30:47;;;;;;;49.42;30.80;;;;;;;13.07;100.00;98991.00;5575268;31;32574;-70
2022/09/27 06:33:53;;;;;;;51.75;31.73;;;;;;;13.15;100.00;98984.63;5589754;31;35230;-70
2022/09/27 06:36:56;;;;;;;55.80;32.88;;;;;;;13.12;100.00;98985.06;5575050;31;32827;-70
2022/09/27 06:40:02;;;;;;;60.83;33.17;;;;;;;13.15;100.00;98984.63;5589335;31;34247;-70
2022/09/27 06:43:09;;;;;;;57.05;32.40;;;;;;;13.37;100.00;98988.50;5589479;31;34386;-70
2022/09/27 06:46:14;;;;;;;54.85;31.12;;;;;;;13.36;100.00;98987.69;5589372;31;34533;-70
2022/09/27 06:49:21;;;;;;;49.10;29.75;;;;;;;13.49;100.00;98979.59;5589437;31;34595;-70
2022/09/27 06:52:24;;;;;;;43.42;27.55;;;;;;;13.71;100.00;98981.81;5589002;31;34580;-69
2022/09/27 06:55:27;;;;;;;43.42;25.45;;;;;;;13.85;100.00;98984.09;5589173;31;34555;-69
2022/09/27 07:01:59;;;;;;;36.25;24.33;;;;;;;13.79;100.00;98969.03;5589066;31;34259;-69
2022/09/27 07:05:06;;;;;;;36.22;24.23;;;;;;;13.86;100.00;98979.59;5589441;31;34026;-69
2022/09/27 07:08:11;;;;;;;35.80;24.37;;;;;;;13.97;100.00;98972.69;5574967;31;32658;-69
2022/09/27 07:11:16;;;;;;;34.35;25.12;;;;;;;14.23;100.00;98985.72;5574361;31;32545;-69
2022/09/27 07:14:21;;;;;;;39.78;24.37;;;;;;;14.10;100.00;99000.00;5589280;31;33893;-69
2022/09/27 07:17:27;;;;;;;34.45;25.05;;;;;;;14.07;100.00;99004.97;5587684;31;34621;-69
2022/09/27 07:20:31;;;;;;;40.20;25.40;;;;;;;13.92;100.00;99008.03;5589010;31;33995;-69
2022/09/27 07:23:36;;;;;;;36.70;25.30;;;;;;;13.91;100.00;99012.53;5589109;31;34672;-70
2022/09/27 07:26:41;;;;;;;36.53;25.27;;;;;;;13.54;100.00;98997.56;5589355;31;34837;-69
2022/09/27 07:29:46;;;;;;;40.72;26.05;;;;;;;13.84;100.00;98992.34;5588928;31;34650;-69
2022/09/27 07:32:57;;;;;;;32.33;23.75;;;;;;;14.45;100.00;98992.22;5575082;31;32727;-69
2022/09/27 07:36:07;;;;;;;32.92;22.50;;;;;;;15.46;100.00;98999.25;5574609;31;34045;-69
2022/09/27 07:39:13;;;;;;;31.15;21.55;;;;;;;16.16;100.00;99002.66;5588714;31;33869;-69
2022/09/27 07:42:16;;;;;;;29.85;21.35;;;;;;;16.44;100.00;99015.25;5588643;31;34764;-69
2022/09/27 07:45:23;;;;;;;28.98;20.37;;;;;;;16.42;100.00;99003.97;5588719;31;33909;-70
2022/09/27 07:48:29;;;;;;;31.17;20.23;;;;;;;16.70;100.00;99005.88;5588435;31;34621;-70
2022/09/27 07:51:34;;;;;;;26.27;19.55;;;;;;;17.14;100.00;98988.09;5588131;31;33971;-70
2022/09/27 07:54:38;;;;;;;25.75;19.85;;;;;;;17.32;100.00;98985.19;5588472;31;33998;-69
2022/09/27 07:57:43;;;;;;;27.58;19.50;;;;;;;17.21;100.00;98986.91;5588394;31;33916;-70
2022/09/27 08:00:47;;;;;;;28.05;19.48;;;;;;;17.16;100.00;98977.97;5588100;31;34013;-70
2022/09/27 08:03:51;;;;;;;23.65;16.10;;;;;;;16.85;100.00;98985.50;5588218;31;34484;-70
2022/09/27 08:06:56;;;;;;;24.85;15.52;;;;;;;17.34;99.72;98988.41;5573967;31;33636;-69
2022/09/27 08:10:04;;;;;;;23.38;15.45;;;;;;;17.45;99.61;98982.16;5588138;31;34363;-71
2022/09/27 08:13:08;;;;;;;21.05;14.82;;;;;;;17.35;99.53;98990.06;5573766;31;34032;-70
2022/09/27 08:16:13;;;;;;;18.98;14.80;;;;;;;17.32;99.32;98975.28;5573745;31;32552;-70
2022/09/27 08:19:21;;;;;;;20.62;14.57;;;;;;;17.68;99.51;98965.06;5588162;31;34586;-70
2022/09/27 08:22:26;;;;;;;19.02;13.90;;;;;;;18.37;92.87;98958.13;5587843;31;33917;-70
2022/09/27 08:25:29;;;;;;;16.50;14.00;;;;;;;18.07;93.10;98963.97;5587818;31;33860;-70
2022/09/27 08:28:35;;;;;;;20.30;14.27;;;;;;;17.57;95.77;98974.81;5573884;31;32751;-70
2022/09/27 08:31:39;;;;;;;20.95;14.45;;;;;;;17.26;99.59;98970.09;5576794;31;33333;-69
2022/09/27 08:34:45;;;;;;;19.80;14.80;;;;;;;16.85;100.00;98980.13;5590528;31;34718;-70
2022/09/27 08:37:55;;;;;;;18.67;14.45;;;;;;;16.53;100.00;98982.50;5590659;31;33949;-69
2022/09/27 08:41:30;;;;;;;20.33;15.32;;;;;;;16.07;100.00;98972.78;5590570;31;34126;-69
2022/09/27 08:45:02;;;;;;;20.60;14.75;;;;;;;15.95;100.00;98965.84;5590418;31;34760;-70
2022/09/27 08:48:09;;;;;;;25.67;15.50;;;;;;;15.67;100.00;98961.25;5590467;31;34613;-69
2022/09/27 08:51:14;;;;;;;22.08;16.02;;;;;;;15.68;100.00;98960.22;5590063;31;34084;-69
2022/09/27 08:54:28;;;;;;;23.30;15.48;;;;;;;15.83;100.00;98949.81;5590343;31;34193;-69
2022/09/27 08:57:36;;;;;;;20.33;15.52;;;;;;;15.75;100.00;98946.69;5590324;31;34571;-69
2022/09/27 09:00:41;;;;;;;20.67;15.43;;;;;;;15.77;100.00;98950.78;5590128;31;34093;-69
2022/09/27 09:03:54;;;;;;;21.58;16.17;;;;;;;16.01;100.00;98948.84;5590365;31;33959;-69
2022/09/27 09:07:32;;;;;;;22.87;16.77;;;;;;;15.99;100.00;98957.09;5590365;31;33966;-69
2022/09/27 09:14:50;;;;;;;18.08;15.50;;;;;;;15.83;100.00;98952.50;5590044;31;34041;-68
2022/09/27 09:18:24;;;;;;;20.52;15.70;;;;;;;16.04;100.00;98954.53;5575724;31;33794;-69
2022/09/27 09:21:58;;;;;;;19.12;15.63;;;;;;;15.83;100.00;98944.47;5576250;31;33303;-69
2022/09/27 09:25:20;;;;;;;21.40;15.85;;;;;;;16.27;100.00;98939.44;5590313;31;34703;-70
2022/09/27 09:28:44;;;;;;;23.30;15.23;;;;;;;16.00;100.00;98937.34;5590232;31;34547;-70
2022/09/27 09:32:27;;;;;;;28.80;16.20;;;;;;;16.29;100.00;98930.12;5589794;31;33920;-69
2022/09/27 09:35:39;;;;;;;19.67;15.80;;;;;;;16.02;100.00;98921.84;5590163;31;33993;-69
2022/09/27 09:39:11;;;;;;;20.37;15.52;;;;;;;15.56;100.00;98905.94;5590463;31;34782;-70
2022/09/27 09:42:31;;;;;;;21.80;17.10;;;;;;;15.71;100.00;98895.56;5544238;31;33299;-70
2022/09/27 09:45:53;;;;;;;19.75;16.48;;;;;;;15.49;100.00;98898.00;5590110;31;33906;-72
2022/09/27 09:49:29;;;;;;;22.67;17.40;;;;;;;15.42;100.00;98896.53;5590200;31;34558;-71
2022/09/27 09:52:45;;;;;;;21.95;16.10;;;;;;;15.27;100.00;98897.00;5564054;31;34133;-73
2022/09/27 09:56:04;;;;;;;23.20;17.05;;;;;;;15.15;100.00;98904.25;5575834;31;34097;-70
2022/09/27 09:59:10;;;;;;;19.23;17.05;;;;;;;15.08;100.00;98908.88;5589891;31;34707;-71
2022/09/27 10:02:22;;;;;;;21.27;16.77;;;;;;;14.84;100.00;98899.22;5589975;31;33989;-70
2022/09/27 10:05:28;;;;;;;24.17;17.70;;;;;;;14.93;100.00;98892.50;5589661;31;33981;-71
2022/09/27 10:08:32;;;;;;;21.58;17.45;;;;;;;14.94;100.00;98892.28;5589906;31;33941;-70
2022/09/27 10:11:43;;;;;;;18.25;15.95;;;;;;;14.75;100.00;98886.22;5590302;31;34900;-71
2022/09/27 10:14:51;;;;;;;22.30;17.77;;;;;;;14.56;100.00;98898.03;5589649;31;33992;-70
2022/09/27 10:17:57;;;;;;;22.83;17.70;;;;;;;14.73;100.00;98879.47;5589808;31;34668;-70
2022/09/27 10:21:06;;;;;;;21.65;17.17;;;;;;;14.73;100.00;98882.16;5589719;31;34570;-70
2022/09/27 10:24:16;;;;;;;22.73;18.20;;;;;;;14.62;100.00;98882.97;5589720;31;34678;-70
2022/09/27 10:27:25;;;;;;;23.50;17.37;;;;;;;14.49;100.00;98885.81;5575414;31;32554;-70
2022/09/27 10:30:31;;;;;;;21.40;18.17;;;;;;;14.58;100.00;98863.91;5589621;31;34623;-70
2022/09/27 10:33:38;;;;;;;21.42;18.65;;;;;;;14.40;100.00;98871.19;5589941;31;34658;-71
2022/09/27 10:36:42;;;;;;;21.87;17.95;;;;;;;14.54;100.00;98873.41;5575042;31;33073;-69
2022/09/27 10:39:47;;;;;;;24.15;19.10;;;;;;;14.71;100.00;98870.91;5589532;31;34692;-70
2022/09/27 10:42:50;;;;;;;24.67;19.87;;;;;;;14.73;100.00;98868.78;5589547;31;35204;-71
2022/09/27 10:46:02;;;;;;;25.73;19.52;;;;;;;14.77;100.00;98867.28;5575340;31;33959;-70
2022/09/27 10:49:21;;;;;;;23.60;18.85;;;;;;;14.75;100.00;98862.19;5589489;31;34617;-71
2022/09/27 10:52:25;;;;;;;23.52;18.98;;;;;;;14.86;100.00;98859.78;5575285;31;32908;-71
2022/09/27 10:55:33;;;;;;;23.10;18.80;;;;;;;14.99;100.00;98862.19;5589572;31;34656;-70
2022/09/27 10:58:37;;;;;;;22.45;17.98;;;;;;;14.86;100.00;98862.44;5589953;31;34156;-70
2022/09/27 11:01:44;;;;;;;23.83;18.08;;;;;;;14.96;100.00;98860.00;5589243;31;34691;-70
2022/09/27 11:05:12;;;;;;;21.73;17.15;;;;;;;14.99;100.00;98851.50;5575120;31;32984;-70
2022/09/27 11:08:18;;;;;;;22.85;17.80;;;;;;;14.85;100.00;98852.78;5576421;31;33888;-70
2022/09/27 11:11:26;;;;;;;24.50;17.27;;;;;;;14.88;100.00;98845.13;5575502;31;33956;-70
2022/09/27 11:14:31;;;;;;;19.87;17.02;;;;;;;14.97;100.00;98849.06;5575093;31;33467;-70
2022/09/27 11:17:58;;;;;;;23.60;17.52;;;;;;;14.93;100.00;98836.41;5589095;31;34086;-70
2022/09/27 11:21:22;;;;;;;23.25;17.27;;;;;;;14.83;100.00;98834.34;5562126;31;32910;-70
2022/09/27 11:24:51;;;;;;;20.65;17.55;;;;;;;14.81;100.00;98835.63;5589192;31;33902;-70
2022/09/27 11:28:15;;;;;;;23.27;17.83;;;;;;;14.85;100.00;98828.75;5588848;31;34355;-70
2022/09/27 11:31:42;;;;;;;22.00;16.87;;;;;;;14.86;100.00;98825.88;5588361;31;34664;-70
2022/09/27 11:35:22;;;;;;;19.02;16.15;;;;;;;15.14;100.00;98811.78;5588560;31;34711;-70
2022/09/27 11:38:41;;;;;;;19.75;15.80;;;;;;;15.21;100.00;98818.63;5574296;31;33408;-70
2022/09/27 11:42:34;;;;;;;20.05;15.15;;;;;;;15.50;100.00;98803.44;5588703;31;34686;-70
2022/09/27 11:45:44;;;;;;;17.52;14.07;;;;;;;15.72;100.00;98800.12;5589151;31;34620;-70
2022/09/27 11:49:11;;;;;;;;;;;;;;;15.96;100.00;98801.66;5589401;31;34587;-70
2022/09/27 11:52:25;;;;;;;18.17;13.73;;;;;;;16.13;100.00;98789.09;5588786;31;34906;-70
2022/09/27 11:56:02;;;;;;;18.20;13.95;;;;;;;16.37;100.00;98787.06;5588449;31;33977;-71
2022/09/27 11:59:21;;;;;;;19.45;13.82;;;;;;;16.77;100.00;98787.72;5574761;31;33127;-71
2022/09/27 12:02:46;;;;;;;18.08;13.77;;;;;;;16.47;100.00;98785.38;5588417;31;34601;-70
2022/09/27 12:06:03;;;;;;;18.70;14.60;;;;;;;16.07;100.00;98777.50;5590305;31;34661;-70
2022/09/27 12:09:21;;;;;;;19.95;14.60;;;;;;;15.94;100.00;98768.97;5590941;31;34670;-71
2022/09/27 12:12:32;;;;;;;18.45;14.38;;;;;;;15.90;100.00;98770.50;5576999;31;32414;-70
2022/09/27 12:15:41;;;;;;;19.85;15.00;;;;;;;15.80;100.00;98759.63;5577088;31;32834;-70
2022/09/27 12:18:47;;;;;;;17.50;14.15;;;;;;;15.83;100.00;98764.50;5590976;31;33962;-70
2022/09/27 12:21:59;;;;;;;19.37;14.60;;;;;;;16.11;100.00;98744.91;5577084;31;33570;-70
2022/09/27 12:25:04;;;;;;;22.63;14.47;;;;;;;16.59;100.00;98753.19;5590278;31;33958;-71
2022/09/27 12:28:17;;;;;;;18.92;14.35;;;;;;;17.26;100.00;98747.62;5590430;31;34152;-69
2022/09/27 12:31:45;;;;;;;24.92;13.93;;;;;;;17.53;100.00;98753.81;5591060;31;34043;-70
2022/09/27 12:34:58;;;;;;;17.80;13.65;;;;;;;17.23;100.00;98746.25;5590904;31;34777;-70
2022/09/27 12:38:21;;;;;;;16.10;13.00;;;;;;;17.43;100.00;98734.94;5576523;31;33337;-70
2022/09/27 12:41:27;;;;;;;;;;;;;;;17.44;100.00;98735.75;5577032;31;32398;-70
2022/09/27 12:44:41;;;;;;;17.58;12.70;;;;;;;17.47;100.00;98737.94;5576716;31;34128;-71
2022/09/27 12:48:01;;;;;;;17.70;13.18;;;;;;;17.01;100.00;98726.69;5590639;31;33900;-69
2022/09/27 12:51:13;;;;;;;16.30;12.32;;;;;;;16.78;100.00;98729.63;5590326;31;34044;-70
2022/09/27 12:54:24;;;;;;;17.58;12.85;;;;;;;16.35;100.00;98717.75;5590416;31;34591;-70
2022/09/27 12:57:48;;;;;;;31.75;16.42;;;;;;;16.14;100.00;98725.69;5576569;31;33182;-74
2022/09/27 13:01:02;;;;;;;30.73;17.42;;;;;;;15.93;100.00;98717.34;5577462;31;33666;-79
2022/09/27 13:04:28;;;;;;;29.27;19.17;;;;;;;15.42;100.00;98720.16;5590439;31;34211;-75
2022/09/27 13:07:48;;;;;;;31.35;18.35;;;;;;;15.22;100.00;98716.06;5590121;31;34825;-74
2022/09/27 13:11:03;;;;;;;23.33;16.83;;;;;;;16.72;100.00;98714.53;5590082;31;34142;-73
2022/09/27 13:14:21;;;;;;;19.98;15.13;;;;;;;17.23;100.00;98711.41;5576616;31;33959;-72
2022/09/27 13:17:43;;;;;;;20.10;16.10;;;;;;;16.82;100.00;98710.12;5590178;31;34088;-71
2022/09/27 13:20:48;;;;;;;23.73;16.90;;;;;;;16.29;100.00;98705.34;5590568;31;34521;-71
2022/09/27 13:23:53;;;;;;;22.62;16.90;;;;;;;15.97;100.00;98694.44;5590051;31;34319;-69
2022/09/27 13:27:00;;;;;;;23.77;17.77;;;;;;;15.81;100.00;98697.91;5576190;31;33391;-69
2022/09/27 13:30:07;;;;;;;22.52;18.15;;;;;;;15.99;100.00;98700.31;5590152;31;33923;-70
2022/09/27 13:33:12;;;;;;;20.42;17.00;;;;;;;16.67;100.00;98699.22;5575943;31;32441;-70
2022/09/27 13:36:27;;;;;;;18.08;14.80;;;;;;;17.30;100.00;98697.81;5575195;31;32558;-70
2022/09/27 13:39:32;;;;;;;20.80;14.45;;;;;;;18.81;100.00;98689.37;5575388;31;33788;-69
2022/09/27 13:43:00;;;;;;;19.80;14.17;;;;;;;20.24;100.00;98692.03;5575842;31;34121;-70
2022/09/27 13:46:14;;;;;;;18.73;14.07;;;;;;;19.63;100.00;98691.25;5575942;31;34117;-70
2022/09/27 13:49:31;;;;;;;20.45;14.85;;;;;;;18.56;100.00;98690.84;5575619;31;32580;-70
2022/09/27 13:52:36;;;;;;;17.60;14.20;;;;;;;17.86;100.00;98685.78;5575827;31;32443;-70
2022/09/27 13:55:49;;;;;;;18.67;14.73;;;;;;;17.79;100.00;98675.25;5589465;31;35058;-70
2022/09/27 13:59:00;;;;;;;24.33;16.75;;;;;;;17.54;100.00;98666.97;5589751;31;34798;-70
2022/09/27 14:02:19;;;;;;;17.25;13.57;;;;;;;17.03;100.00;98672.88;5575314;31;34820;-70
2022/09/27 14:05:34;;;;;;;13.80;10.75;;;;;;;16.69;100.00;98681.03;5589426;31;34150;-69
2022/09/27 14:08:45;;;;;;;15.60;10.18;;;;;;;16.51;100.00;98670.56;5575284;31;32790;-69
2022/09/27 14:11:55;;;;;;;13.18;9.85;;;;;;;16.17;100.00;98653.78;5575176;31;32749;-69
2022/09/27 14:15:03;;;;;;;7.10;5.15;;;;;;;16.07;100.00;98678.50;5589527;31;33983;-71
2022/09/27 14:18:13;;;;;;;5.72;3.00;;;;;;;15.67;100.00;98709.16;5590350;31;34102;-79
2022/09/27 14:21:25;;;;;;;3.53;2.53;;;;;;;14.80;100.00;98725.34;5591194;31;33808;-79
2022/09/27 14:24:52;;;;;;;10.18;3.33;;;;;;;13.94;100.00;98732.16;5590414;31;34095;-73
2022/09/27 14:27:59;;;;;;;4.78;2.85;;;;;;;13.39;100.00;98739.53;5574691;31;32727;-75
2022/09/27 14:31:22;;;;;;;5.40;1.85;;;;;;;13.35;100.00;98743.69;5589852;31;33893;-73
2022/09/27 14:34:28;;;;;;;3.45;1.50;;;;;;;13.08;100.00;98751.16;5590050;31;33954;-72
2022/09/27 14:37:33;;;;;;;3.37;1.52;;;;;;;12.72;100.00;98745.84;5589535;31;33954;-73
2022/09/27 14:40:42;;;;;;;2.50;1.52;;;;;;;12.61;100.00;98747.41;5589832;31;33860;-72
2022/09/27 14:43:49;;;;;;;6.50;1.70;;;;;;;12.41;100.00;98746.78;5589317;31;34870;-73
2022/09/27 14:47:09;;;;;;;4.55;1.48;;;;;;;12.46;100.00;98744.28;5575972;31;34620;-74
2022/09/27 14:50:27;;;;;;;2.00;1.35;;;;;;;12.44;100.00;98756.97;5589654;31;34301;-76